EKVG

Vagar Airport

Vagar, Denmark
METAR EKVG 211250Z AUTO 17012KT 9999NDV -SHRA SCT018/// 06/03 Q1023 RMK BKN020/// WIND 850FT 16020KT
Observed Flight Rules
Feb-21 @ 12:50 UTC (29 minutes ago)
Wind Clouds Conditions
170° at 12 knots
  • Scattered at 1,800' AGL
  • Light Rain
Temperatures Readings
Current 6°C / 43°F
Dewpoint 3°C / 37°F
Humidity 81%
Altimeter 30.21" Hg
Pressure 1023 hPa
Elevation 85
METAR EKVG 211250Z AUTO 17012KT 9999NDV -SHRA SCT018/// 06/03 Q1023 RMK BKN020/// WIND 850FT 16020KT
Observed Flight Rules
Feb-21 @ 12:50 UTC
(29 minutes ago)
Wind
170° at 12 knots
Clouds
  • Scattered at 1,800' AGL
Conditions
  • Light Rain
Temperature Dewpoint
6°C / 43°F 3°C / 37°F
Humidity Altimeter Pressure
81% 30.21" Hg 1023 hPa